sensor_id;sensor_type;location;lat;lon;timestamp;temperature;humidity
69082;DHT22;56184;51.986;5.760;2023-02-01T00:02:20;5.50;96.60
69082;DHT22;56184;51.986;5.760;2023-02-01T00:04:49;5.60;96.90
69082;DHT22;56184;51.986;5.760;2023-02-01T00:07:14;5.50;97.00
69082;DHT22;56184;51.986;5.760;2023-02-01T00:09:46;5.50;96.50
69082;DHT22;56184;51.986;5.760;2023-02-01T00:12:23;5.50;96.30
69082;DHT22;56184;51.986;5.760;2023-02-01T00:14:58;5.60;96.30
69082;DHT22;56184;51.986;5.760;2023-02-01T00:17:33;5.60;96.40
69082;DHT22;56184;51.986;5.760;2023-02-01T00:20:02;5.50;96.10
69082;DHT22;56184;51.986;5.760;2023-02-01T00:22:40;5.50;96.30
69082;DHT22;56184;51.986;5.760;2023-02-01T00:25:21;5.50;96.50
69082;DHT22;56184;51.986;5.760;2023-02-01T00:27:50;5.50;96.60
69082;DHT22;56184;51.986;5.760;2023-02-01T00:30:28;5.60;96.40
69082;DHT22;56184;51.986;5.760;2023-02-01T00:33:08;5.60;96.10
69082;DHT22;56184;51.986;5.760;2023-02-01T00:35:43;5.60;96.00
69082;DHT22;56184;51.986;5.760;2023-02-01T00:38:08;5.60;96.80
69082;DHT22;56184;51.986;5.760;2023-02-01T00:40:40;5.70;96.90
69082;DHT22;56184;51.986;5.760;2023-02-01T00:43:07;5.70;96.20
69082;DHT22;56184;51.986;5.760;2023-02-01T00:45:42;5.60;96.20
69082;DHT22;56184;51.986;5.760;2023-02-01T00:48:12;5.60;96.80
69082;DHT22;56184;51.986;5.760;2023-02-01T00:50:42;5.60;96.50
69082;DHT22;56184;51.986;5.760;2023-02-01T00:53:22;5.60;96.50
69082;DHT22;56184;51.986;5.760;2023-02-01T00:55:50;5.60;96.70
69082;DHT22;56184;51.986;5.760;2023-02-01T00:58:15;5.60;96.80
69082;DHT22;56184;51.986;5.760;2023-02-01T01:00:41;5.60;96.70
69082;DHT22;56184;51.986;5.760;2023-02-01T01:03:17;5.60;96.60
69082;DHT22;56184;51.986;5.760;2023-02-01T01:05:49;5.70;97.20
69082;DHT22;56184;51.986;5.760;2023-02-01T01:08:46;5.70;96.70
69082;DHT22;56184;51.986;5.760;2023-02-01T01:11:30;5.70;96.80
69082;DHT22;56184;51.986;5.760;2023-02-01T01:14:03;5.70;97.10
69082;DHT22;56184;51.986;5.760;2023-02-01T01:16:41;5.70;97.50
69082;DHT22;56184;51.986;5.760;2023-02-01T01:19:06;5.70;97.30
69082;DHT22;56184;51.986;5.760;2023-02-01T01:21:32;5.70;97.50
69082;DHT22;56184;51.986;5.760;2023-02-01T01:24:17;5.80;97.40
69082;DHT22;56184;51.986;5.760;2023-02-01T01:27:01;5.70;97.30
69082;DHT22;56184;51.986;5.760;2023-02-01T01:29:26;5.70;97.70
69082;DHT22;56184;51.986;5.760;2023-02-01T01:32:04;5.70;97.40
69082;DHT22;56184;51.986;5.760;2023-02-01T01:34:30;5.70;97.60
69082;DHT22;56184;51.986;5.760;2023-02-01T01:36:55;5.70;97.20
69082;DHT22;56184;51.986;5.760;2023-02-01T01:39:37;5.80;97.30
69082;DHT22;56184;51.986;5.760;2023-02-01T01:42:14;5.80;97.60
69082;DHT22;56184;51.986;5.760;2023-02-01T01:45:02;5.70;97.20
69082;DHT22;56184;51.986;5.760;2023-02-01T01:47:42;5.70;97.30
69082;DHT22;56184;51.986;5.760;2023-02-01T01:50:19;5.70;97.50
69082;DHT22;56184;51.986;5.760;2023-02-01T01:52:51;5.70;97.40
69082;DHT22;56184;51.986;5.760;2023-02-01T01:55:33;5.70;97.90
69082;DHT22;56184;51.986;5.760;2023-02-01T02:00:30;5.60;97.80
69082;DHT22;56184;51.986;5.760;2023-02-01T02:03:11;5.60;97.60
69082;DHT22;56184;51.986;5.760;2023-02-01T02:05:37;5.60;97.90
69082;DHT22;56184;51.986;5.760;2023-02-01T02:08:03;5.60;97.60
69082;DHT22;56184;51.986;5.760;2023-02-01T02:10:29;5.60;97.60
69082;DHT22;56184;51.986;5.760;2023-02-01T02:13:16;5.50;97.80
69082;DHT22;56184;51.986;5.760;2023-02-01T02:15:52;5.50;98.10
69082;DHT22;56184;51.986;5.760;2023-02-01T02:18:38;5.60;97.60
69082;DHT22;56184;51.986;5.760;2023-02-01T02:21:16;5.60;97.80
69082;DHT22;56184;51.986;5.760;2023-02-01T02:27:09;5.60;97.40
69082;DHT22;56184;51.986;5.760;2023-02-01T02:30:22;5.60;97.80
69082;DHT22;56184;51.986;5.760;2023-02-01T02:36:01;5.60;97.40
69082;DHT22;56184;51.986;5.760;2023-02-01T02:38:49;5.60;97.40
69082;DHT22;56184;51.986;5.760;2023-02-01T02:47:24;5.60;97.20
69082;DHT22;56184;51.986;5.760;2023-02-01T02:50:11;5.70;97.30
69082;DHT22;56184;51.986;5.760;2023-02-01T02:53:10;5.60;97.10
69082;DHT22;56184;51.986;5.760;2023-02-01T02:55:56;5.60;97.30
69082;DHT22;56184;51.986;5.760;2023-02-01T02:58:42;5.60;97.10
69082;DHT22;56184;51.986;5.760;2023-02-01T03:01:28;5.60;97.40
69082;DHT22;56184;51.986;5.760;2023-02-01T03:04:13;5.60;97.40
69082;DHT22;56184;51.986;5.760;2023-02-01T03:06:43;5.60;97.90
69082;DHT22;56184;51.986;5.760;2023-02-01T03:09:14;5.60;97.50
69082;DHT22;56184;51.986;5.760;2023-02-01T03:11:43;5.60;97.90
69082;DHT22;56184;51.986;5.760;2023-02-01T03:14:32;5.60;97.60
69082;DHT22;56184;51.986;5.760;2023-02-01T03:17:14;5.60;97.60
69082;DHT22;56184;51.986;5.760;2023-02-01T03:19:43;5.70;97.50
69082;DHT22;56184;51.986;5.760;2023-02-01T03:22:14;5.70;97.40
69082;DHT22;56184;51.986;5.760;2023-02-01T03:24:50;5.70;97.70
69082;DHT22;56184;51.986;5.760;2023-02-01T03:27:39;5.70;97.70
69082;DHT22;56184;51.986;5.760;2023-02-01T03:30:25;5.70;97.80
69082;DHT22;56184;51.986;5.760;2023-02-01T03:32:54;5.60;97.90
69082;DHT22;56184;51.986;5.760;2023-02-01T03:35:31;5.60;98.30
69082;DHT22;56184;51.986;5.760;2023-02-01T03:40:51;5.70;98.30
69082;DHT22;56184;51.986;5.760;2023-02-01T03:43:29;5.70;98.70
69082;DHT22;56184;51.986;5.760;2023-02-01T03:46:01;5.80;98.20
69082;DHT22;56184;51.986;5.760;2023-02-01T03:48:38;5.80;98.50
69082;DHT22;56184;51.986;5.760;2023-02-01T03:51:23;5.80;98.60
69082;DHT22;56184;51.986;5.760;2023-02-01T03:54:03;5.80;98.40
69082;DHT22;56184;51.986;5.760;2023-02-01T03:56:38;5.90;98.50
69082;DHT22;56184;51.986;5.760;2023-02-01T03:59:07;5.80;98.60
69082;DHT22;56184;51.986;5.760;2023-02-01T04:01:33;5.80;98.70
69082;DHT22;56184;51.986;5.760;2023-02-01T04:04:06;5.80;98.80
69082;DHT22;56184;51.986;5.760;2023-02-01T04:06:44;5.80;98.70
69082;DHT22;56184;51.986;5.760;2023-02-01T04:09:24;5.90;98.50
69082;DHT22;56184;51.986;5.760;2023-02-01T04:12:02;5.80;98.60
69082;DHT22;56184;51.986;5.760;2023-02-01T04:14:52;5.80;98.70
69082;DHT22;56184;51.986;5.760;2023-02-01T04:17:24;5.90;99.00
69082;DHT22;56184;51.986;5.760;2023-02-01T04:19:50;5.90;98.60
69082;DHT22;56184;51.986;5.760;2023-02-01T04:22:46;5.90;98.50
69082;DHT22;56184;51.986;5.760;2023-02-01T04:25:15;5.90;98.30
69082;DHT22;56184;51.986;5.760;2023-02-01T04:27:57;6.10;98.70
69082;DHT22;56184;51.986;5.760;2023-02-01T04:30:39;6.10;97.80
69082;DHT22;56184;51.986;5.760;2023-02-01T04:33:05;6.10;97.90
69082;DHT22;56184;51.986;5.760;2023-02-01T04:35:54;6.10;98.00
69082;DHT22;56184;51.986;5.760;2023-02-01T04:38:22;6.20;97.60
69082;DHT22;56184;51.986;5.760;2023-02-01T04:40:53;6.20;97.50
69082;DHT22;56184;51.986;5.760;2023-02-01T04:43:28;6.30;97.50
69082;DHT22;56184;51.986;5.760;2023-02-01T04:46:03;6.30;97.50
69082;DHT22;56184;51.986;5.760;2023-02-01T04:48:30;6.30;97.20
69082;DHT22;56184;51.986;5.760;2023-02-01T04:51:16;6.30;98.20
69082;DHT22;56184;51.986;5.760;2023-02-01T04:54:01;6.40;97.40
69082;DHT22;56184;51.986;5.760;2023-02-01T04:56:43;6.30;97.10
69082;DHT22;56184;51.986;5.760;2023-02-01T04:59:17;6.30;97.20
69082;DHT22;56184;51.986;5.760;2023-02-01T05:01:48;6.40;97.20
69082;DHT22;56184;51.986;5.760;2023-02-01T05:04:14;6.50;97.50
69082;DHT22;56184;51.986;5.760;2023-02-01T05:06:44;6.50;97.00
69082;DHT22;56184;51.986;5.760;2023-02-01T05:09:13;6.50;96.90
69082;DHT22;56184;51.986;5.760;2023-02-01T05:11:38;6.60;96.70
69082;DHT22;56184;51.986;5.760;2023-02-01T05:14:29;6.60;96.40
69082;DHT22;56184;51.986;5.760;2023-02-01T05:17:01;6.60;96.60
69082;DHT22;56184;51.986;5.760;2023-02-01T05:19:39;6.60;96.50
69082;DHT22;56184;51.986;5.760;2023-02-01T05:22:14;6.60;97.10
69082;DHT22;56184;51.986;5.760;2023-02-01T05:24:39;6.50;97.10
69082;DHT22;56184;51.986;5.760;2023-02-01T05:27:36;6.60;97.10
69082;DHT22;56184;51.986;5.760;2023-02-01T05:30:04;6.60;96.80
69082;DHT22;56184;51.986;5.760;2023-02-01T05:32:36;6.60;97.00
69082;DHT22;56184;51.986;5.760;2023-02-01T05:35:01;6.70;96.70
69082;DHT22;56184;51.986;5.760;2023-02-01T05:37:37;6.70;97.60
69082;DHT22;56184;51.986;5.760;2023-02-01T05:40:03;6.70;96.40
69082;DHT22;56184;51.986;5.760;2023-02-01T05:42:31;6.70;96.40
69082;DHT22;56184;51.986;5.760;2023-02-01T05:45:27;6.80;96.50
69082;DHT22;56184;51.986;5.760;2023-02-01T05:48:05;6.80;96.70
69082;DHT22;56184;51.986;5.760;2023-02-01T05:50:45;6.90;95.80
69082;DHT22;56184;51.986;5.760;2023-02-01T05:53:23;6.90;96.50
69082;DHT22;56184;51.986;5.760;2023-02-01T05:55:51;6.80;96.20
69082;DHT22;56184;51.986;5.760;2023-02-01T05:58:26;6.90;96.40
69082;DHT22;56184;51.986;5.760;2023-02-01T06:00:52;6.80;96.00
69082;DHT22;56184;51.986;5.760;2023-02-01T06:03:23;6.90;96.30
69082;DHT22;56184;51.986;5.760;2023-02-01T06:05:48;6.80;96.30
69082;DHT22;56184;51.986;5.760;2023-02-01T06:08:37;6.90;96.10
69082;DHT22;56184;51.986;5.760;2023-02-01T06:11:11;6.80;96.40
69082;DHT22;56184;51.986;5.760;2023-02-01T06:13:38;6.80;96.70
69082;DHT22;56184;51.986;5.760;2023-02-01T06:16:19;6.80;96.30
69082;DHT22;56184;51.986;5.760;2023-02-01T06:18:57;6.90;96.00
69082;DHT22;56184;51.986;5.760;2023-02-01T06:21:26;6.90;95.90
69082;DHT22;56184;51.986;5.760;2023-02-01T06:24:10;6.90;96.00
69082;DHT22;56184;51.986;5.760;2023-02-01T06:26:45;6.90;95.60
69082;DHT22;56184;51.986;5.760;2023-02-01T06:29:19;7.00;95.90
69082;DHT22;56184;51.986;5.760;2023-02-01T06:31:54;6.90;96.10
69082;DHT22;56184;51.986;5.760;2023-02-01T06:34:20;6.90;96.20
69082;DHT22;56184;51.986;5.760;2023-02-01T06:36:47;6.80;95.60
69082;DHT22;56184;51.986;5.760;2023-02-01T06:39:14;6.90;97.10
69082;DHT22;56184;51.986;5.760;2023-02-01T06:41:50;6.90;96.40
69082;DHT22;56184;51.986;5.760;2023-02-01T06:44:18;6.90;96.00
69082;DHT22;56184;51.986;5.760;2023-02-01T06:46:44;6.90;95.90
69082;DHT22;56184;51.986;5.760;2023-02-01T06:49:26;6.90;95.90
69082;DHT22;56184;51.986;5.760;2023-02-01T06:51:55;6.90;96.10
69082;DHT22;56184;51.986;5.760;2023-02-01T06:54:21;7.00;96.30
69082;DHT22;56184;51.986;5.760;2023-02-01T06:57:05;6.90;96.40
69082;DHT22;56184;51.986;5.760;2023-02-01T06:59:30;6.90;96.60
69082;DHT22;56184;51.986;5.760;2023-02-01T07:01:57;6.90;96.60
69082;DHT22;56184;51.986;5.760;2023-02-01T07:04:38;6.90;96.00
69082;DHT22;56184;51.986;5.760;2023-02-01T07:07:18;6.90;96.10
69082;DHT22;56184;51.986;5.760;2023-02-01T07:09:54;6.80;96.20
69082;DHT22;56184;51.986;5.760;2023-02-01T07:12:19;6.80;96.40
69082;DHT22;56184;51.986;5.760;2023-02-01T07:15:02;6.80;96.80
69082;DHT22;56184;51.986;5.760;2023-02-01T07:17:31;6.80;96.90
69082;DHT22;56184;51.986;5.760;2023-02-01T07:20:27;6.70;96.60
69082;DHT22;56184;51.986;5.760;2023-02-01T07:23:12;6.70;96.90
69082;DHT22;56184;51.986;5.760;2023-02-01T07:25:37;6.80;97.10
69082;DHT22;56184;51.986;5.760;2023-02-01T07:28:03;6.60;97.00
69082;DHT22;56184;51.986;5.760;2023-02-01T07:31:08;6.60;97.00
69082;DHT22;56184;51.986;5.760;2023-02-01T07:34:10;6.60;97.30
69082;DHT22;56184;51.986;5.760;2023-02-01T07:36:40;6.60;96.60
69082;DHT22;56184;51.986;5.760;2023-02-01T07:39:20;6.60;96.90
69082;DHT22;56184;51.986;5.760;2023-02-01T07:41:52;6.60;97.00
69082;DHT22;56184;51.986;5.760;2023-02-01T07:44:17;6.60;97.00
69082;DHT22;56184;51.986;5.760;2023-02-01T07:46:48;6.60;97.00
69082;DHT22;56184;51.986;5.760;2023-02-01T07:49:28;6.60;97.10
69082;DHT22;56184;51.986;5.760;2023-02-01T07:52:05;6.60;97.20
69082;DHT22;56184;51.986;5.760;2023-02-01T07:54:31;6.60;97.00
69082;DHT22;56184;51.986;5.760;2023-02-01T07:56:56;6.60;97.60
69082;DHT22;56184;51.986;5.760;2023-02-01T07:59:31;6.60;96.60
69082;DHT22;56184;51.986;5.760;2023-02-01T08:01:57;6.60;96.80
69082;DHT22;56184;51.986;5.760;2023-02-01T08:04:23;6.60;97.20
69082;DHT22;56184;51.986;5.760;2023-02-01T08:07:02;6.50;97.40
69082;DHT22;56184;51.986;5.760;2023-02-01T08:09:27;6.50;97.60
69082;DHT22;56184;51.986;5.760;2023-02-01T08:11:53;6.50;97.40
69082;DHT22;56184;51.986;5.760;2023-02-01T08:14:26;6.50;97.10
69082;DHT22;56184;51.986;5.760;2023-02-01T08:17:07;6.50;97.10
69082;DHT22;56184;51.986;5.760;2023-02-01T08:19:42;6.50;97.40
69082;DHT22;56184;51.986;5.760;2023-02-01T08:22:17;6.50;97.30
69082;DHT22;56184;51.986;5.760;2023-02-01T08:24:43;6.60;97.00
69082;DHT22;56184;51.986;5.760;2023-02-01T08:27:08;6.50;97.50
69082;DHT22;56184;51.986;5.760;2023-02-01T08:29:34;6.70;97.30
69082;DHT22;56184;51.986;5.760;2023-02-01T08:32:09;6.60;96.90
69082;DHT22;56184;51.986;5.760;2023-02-01T08:34:40;6.60;96.80
69082;DHT22;56184;51.986;5.760;2023-02-01T08:37:09;6.60;97.00
69082;DHT22;56184;51.986;5.760;2023-02-01T08:39:35;6.60;97.40
69082;DHT22;56184;51.986;5.760;2023-02-01T08:42:24;6.60;97.00
69082;DHT22;56184;51.986;5.760;2023-02-01T08:45:09;6.70;96.60
69082;DHT22;56184;51.986;5.760;2023-02-01T08:47:35;6.80;96.70
69082;DHT22;56184;51.986;5.760;2023-02-01T08:50:03;6.80;96.90
69082;DHT22;56184;51.986;5.760;2023-02-01T08:52:29;6.90;96.40
69082;DHT22;56184;51.986;5.760;2023-02-01T08:55:00;6.90;96.60
69082;DHT22;56184;51.986;5.760;2023-02-01T08:57:25;7.00;96.50
69082;DHT22;56184;51.986;5.760;2023-02-01T09:00:01;7.00;96.20
69082;DHT22;56184;51.986;5.760;2023-02-01T09:02:50;6.90;96.20
69082;DHT22;56184;51.986;5.760;2023-02-01T09:05:33;7.00;96.50
69082;DHT22;56184;51.986;5.760;2023-02-01T09:08:02;7.00;96.20
69082;DHT22;56184;51.986;5.760;2023-02-01T09:10:35;7.20;96.40
69082;DHT22;56184;51.986;5.760;2023-02-01T09:13:04;7.20;96.00
69082;DHT22;56184;51.986;5.760;2023-02-01T09:15:30;7.10;96.40
69082;DHT22;56184;51.986;5.760;2023-02-01T09:17:58;7.10;96.20
69082;DHT22;56184;51.986;5.760;2023-02-01T09:20:23;7.10;96.40
69082;DHT22;56184;51.986;5.760;2023-02-01T09:22:51;7.30;95.60
69082;DHT22;56184;51.986;5.760;2023-02-01T09:25:36;7.30;95.60
69082;DHT22;56184;51.986;5.760;2023-02-01T09:28:23;7.40;95.60
69082;DHT22;56184;51.986;5.760;2023-02-01T09:30:49;7.30;95.70
69082;DHT22;56184;51.986;5.760;2023-02-01T09:33:21;7.40;95.60
69082;DHT22;56184;51.986;5.760;2023-02-01T09:35:49;7.50;95.90
69082;DHT22;56184;51.986;5.760;2023-02-01T09:38:27;7.50;95.70
69082;DHT22;56184;51.986;5.760;2023-02-01T09:40:55;7.50;95.40
69082;DHT22;56184;51.986;5.760;2023-02-01T09:43:35;7.70;95.90
69082;DHT22;56184;51.986;5.760;2023-02-01T09:52:34;8.00;94.90
69082;DHT22;56184;51.986;5.760;2023-02-01T09:55:39;8.00;94.20
69082;DHT22;56184;51.986;5.760;2023-02-01T09:58:41;8.00;94.30
69082;DHT22;56184;51.986;5.760;2023-02-01T10:01:26;7.90;94.40
69082;DHT22;56184;51.986;5.760;2023-02-01T10:03:53;8.10;94.40
69082;DHT22;56184;51.986;5.760;2023-02-01T10:06:54;8.10;94.40
69082;DHT22;56184;51.986;5.760;2023-02-01T10:18:18;8.00;94.00
69082;DHT22;56184;51.986;5.760;2023-02-01T10:26:22;7.90;94.90
69082;DHT22;56184;51.986;5.760;2023-02-01T10:28:53;7.90;95.70
69082;DHT22;56184;51.986;5.760;2023-02-01T10:31:24;7.70;97.10
69082;DHT22;56184;51.986;5.760;2023-02-01T10:34:01;7.80;97.30
69082;DHT22;56184;51.986;5.760;2023-02-01T10:36:42;7.70;97.80
69082;DHT22;56184;51.986;5.760;2023-02-01T10:39:45;7.50;98.60
69082;DHT22;56184;51.986;5.760;2023-02-01T10:42:11;7.40;98.50
69082;DHT22;56184;51.986;5.760;2023-02-01T10:44:42;7.30;99.90
69082;DHT22;56184;51.986;5.760;2023-02-01T10:47:10;7.20;99.90
69082;DHT22;56184;51.986;5.760;2023-02-01T10:49:56;7.20;99.90
69082;DHT22;56184;51.986;5.760;2023-02-01T10:53:25;7.10;99.90
69082;DHT22;56184;51.986;5.760;2023-02-01T10:56:08;7.10;99.90
69082;DHT22;56184;51.986;5.760;2023-02-01T11:01:45;6.90;99.90
69082;DHT22;56184;51.986;5.760;2023-02-01T11:04:20;6.80;99.90
69082;DHT22;56184;51.986;5.760;2023-02-01T11:06:51;6.90;99.90
69082;DHT22;56184;51.986;5.760;2023-02-01T11:09:21;6.80;99.90
69082;DHT22;56184;51.986;5.760;2023-02-01T11:12:03;6.90;99.90
69082;DHT22;56184;51.986;5.760;2023-02-01T11:14:43;6.90;99.90
69082;DHT22;56184;51.986;5.760;2023-02-01T11:17:41;6.80;99.90
69082;DHT22;56184;51.986;5.760;2023-02-01T11:26:27;7.00;99.40
69082;DHT22;56184;51.986;5.760;2023-02-01T11:29:15;7.00;99.10
69082;DHT22;56184;51.986;5.760;2023-02-01T11:31:49;7.10;98.80
69082;DHT22;56184;51.986;5.760;2023-02-01T11:34:43;7.10;98.00
69082;DHT22;56184;51.986;5.760;2023-02-01T11:37:36;7.30;98.60
69082;DHT22;56184;51.986;5.760;2023-02-01T11:40:50;7.30;99.30
69082;DHT22;56184;51.986;5.760;2023-02-01T11:43:37;7.20;99.90
69082;DHT22;56184;51.986;5.760;2023-02-01T11:46:17;7.20;99.90
69082;DHT22;56184;51.986;5.760;2023-02-01T11:48:56;7.20;99.90
69082;DHT22;56184;51.986;5.760;2023-02-01T12:22:44;7.80;97.60
69082;DHT22;56184;51.986;5.760;2023-02-01T12:25:34;8.00;97.50
69082;DHT22;56184;51.986;5.760;2023-02-01T12:57:36;8.30;96.30
69082;DHT22;56184;51.986;5.760;2023-02-01T13:43:16;8.30;94.40
69082;DHT22;56184;51.986;5.760;2023-02-01T13:46:10;8.40;94.80
69082;DHT22;56184;51.986;5.760;2023-02-01T13:48:57;8.40;94.90
69082;DHT22;56184;51.986;5.760;2023-02-01T13:51:59;8.40;95.40
69082;DHT22;56184;51.986;5.760;2023-02-01T13:54:40;8.50;95.30
69082;DHT22;56184;51.986;5.760;2023-02-01T14:00:50;8.40;94.70
69082;DHT22;56184;51.986;5.760;2023-02-01T14:09:36;8.60;95.00
69082;DHT22;56184;51.986;5.760;2023-02-01T14:15:53;8.50;95.20
69082;DHT22;56184;51.986;5.760;2023-02-01T14:24:31;8.60;94.00
69082;DHT22;56184;51.986;5.760;2023-02-01T14:33:56;8.80;94.10
69082;DHT22;56184;51.986;5.760;2023-02-01T14:36:23;8.90;94.90
69082;DHT22;56184;51.986;5.760;2023-02-01T14:39:16;8.80;93.70
69082;DHT22;56184;51.986;5.760;2023-02-01T14:51:17;8.80;94.70
69082;DHT22;56184;51.986;5.760;2023-02-01T15:00:25;8.70;95.30
69082;DHT22;56184;51.986;5.760;2023-02-01T15:17:39;8.60;94.80
69082;DHT22;56184;51.986;5.760;2023-02-01T15:20:39;8.70;95.00
69082;DHT22;56184;51.986;5.760;2023-02-01T15:23:14;8.60;95.10
69082;DHT22;56184;51.986;5.760;2023-02-01T15:25:53;8.50;95.90
69082;DHT22;56184;51.986;5.760;2023-02-01T15:29:04;8.40;96.50
69082;DHT22;56184;51.986;5.760;2023-02-01T15:31:37;8.40;96.00
69082;DHT22;56184;51.986;5.760;2023-02-01T15:34:03;8.50;96.40
69082;DHT22;56184;51.986;5.760;2023-02-01T15:36:33;8.40;96.40
69082;DHT22;56184;51.986;5.760;2023-02-01T15:39:26;8.50;96.40
69082;DHT22;56184;51.986;5.760;2023-02-01T15:45:01;8.70;95.10
69082;DHT22;56184;51.986;5.760;2023-02-01T15:47:29;8.60;95.20
69082;DHT22;56184;51.986;5.760;2023-02-01T15:49:58;8.60;95.50
69082;DHT22;56184;51.986;5.760;2023-02-01T15:52:40;8.70;95.90
69082;DHT22;56184;51.986;5.760;2023-02-01T15:55:36;8.60;95.30
69082;DHT22;56184;51.986;5.760;2023-02-01T15:58:40;8.60;95.20
69082;DHT22;56184;51.986;5.760;2023-02-01T16:01:24;8.60;95.10
69082;DHT22;56184;51.986;5.760;2023-02-01T16:04:19;8.70;95.50
69082;DHT22;56184;51.986;5.760;2023-02-01T16:07:22;8.60;95.70
69082;DHT22;56184;51.986;5.760;2023-02-01T16:09:55;8.70;95.40
69082;DHT22;56184;51.986;5.760;2023-02-01T16:18:45;8.70;97.00
69082;DHT22;56184;51.986;5.760;2023-02-01T16:21:27;8.70;96.20
69082;DHT22;56184;51.986;5.760;2023-02-01T16:24:12;8.70;96.00
69082;DHT22;56184;51.986;5.760;2023-02-01T16:26:38;8.70;96.00
69082;DHT22;56184;51.986;5.760;2023-02-01T16:29:39;8.80;96.10
69082;DHT22;56184;51.986;5.760;2023-02-01T16:32:05;8.70;96.00
69082;DHT22;56184;51.986;5.760;2023-02-01T16:34:59;8.70;95.60
69082;DHT22;56184;51.986;5.760;2023-02-01T16:37:28;8.70;95.60
69082;DHT22;56184;51.986;5.760;2023-02-01T16:40:13;8.70;95.60
69082;DHT22;56184;51.986;5.760;2023-02-01T16:42:55;8.70;95.30
69082;DHT22;56184;51.986;5.760;2023-02-01T16:45:24;8.70;95.70
69082;DHT22;56184;51.986;5.760;2023-02-01T16:47:54;8.60;95.30
69082;DHT22;56184;51.986;5.760;2023-02-01T16:50:24;8.80;96.00
69082;DHT22;56184;51.986;5.760;2023-02-01T16:52:52;8.70;95.50
69082;DHT22;56184;51.986;5.760;2023-02-01T16:55:19;8.70;95.20
69082;DHT22;56184;51.986;5.760;2023-02-01T16:58:10;8.80;95.10
69082;DHT22;56184;51.986;5.760;2023-02-01T17:00:57;8.70;95.70
69082;DHT22;56184;51.986;5.760;2023-02-01T17:03:22;8.80;95.20
69082;DHT22;56184;51.986;5.760;2023-02-01T17:06:20;8.80;95.00
69082;DHT22;56184;51.986;5.760;2023-02-01T17:09:02;8.80;95.30
69082;DHT22;56184;51.986;5.760;2023-02-01T17:11:34;8.70;95.20
69082;DHT22;56184;51.986;5.760;2023-02-01T17:14:23;8.70;95.60
69082;DHT22;56184;51.986;5.760;2023-02-01T17:17:08;8.80;95.30
69082;DHT22;56184;51.986;5.760;2023-02-01T17:19:56;8.90;95.50
69082;DHT22;56184;51.986;5.760;2023-02-01T17:22:33;8.90;95.50
69082;DHT22;56184;51.986;5.760;2023-02-01T17:25:02;8.90;95.20
69082;DHT22;56184;51.986;5.760;2023-02-01T17:27:47;8.90;94.80
69082;DHT22;56184;51.986;5.760;2023-02-01T17:30:31;8.90;96.10
69082;DHT22;56184;51.986;5.760;2023-02-01T17:33:03;8.90;95.10
69082;DHT22;56184;51.986;5.760;2023-02-01T17:35:31;8.90;94.60
69082;DHT22;56184;51.986;5.760;2023-02-01T17:38:05;9.00;95.70
69082;DHT22;56184;51.986;5.760;2023-02-01T17:43:21;8.90;94.90
69082;DHT22;56184;51.986;5.760;2023-02-01T17:46:28;8.90;94.60
69082;DHT22;56184;51.986;5.760;2023-02-01T17:48:55;9.00;94.60
69082;DHT22;56184;51.986;5.760;2023-02-01T17:51:36;8.90;95.00
69082;DHT22;56184;51.986;5.760;2023-02-01T17:54:23;8.90;94.60
69082;DHT22;56184;51.986;5.760;2023-02-01T17:56:50;9.10;99.90
69082;DHT22;56184;51.986;5.760;2023-02-01T17:59:34;9.10;98.50
69082;DHT22;56184;51.986;5.760;2023-02-01T18:04:45;9.00;95.20
69082;DHT22;56184;51.986;5.760;2023-02-01T18:07:33;8.90;94.30
69082;DHT22;56184;51.986;5.760;2023-02-01T18:09:59;9.00;95.00
69082;DHT22;56184;51.986;5.760;2023-02-01T18:12:38;9.00;94.20
69082;DHT22;56184;51.986;5.760;2023-02-01T18:15:19;9.00;95.20
69082;DHT22;56184;51.986;5.760;2023-02-01T18:18:22;8.90;94.40
69082;DHT22;56184;51.986;5.760;2023-02-01T18:20:54;9.00;95.50
69082;DHT22;56184;51.986;5.760;2023-02-01T18:23:22;9.10;95.10
69082;DHT22;56184;51.986;5.760;2023-02-01T18:25:48;9.00;94.70
69082;DHT22;56184;51.986;5.760;2023-02-01T18:28:21;9.00;96.50
69082;DHT22;56184;51.986;5.760;2023-02-01T18:30:49;9.00;99.30
69082;DHT22;56184;51.986;5.760;2023-02-01T18:33:27;8.90;99.90
69082;DHT22;56184;51.986;5.760;2023-02-01T18:35:55;8.60;99.90
69082;DHT22;56184;51.986;5.760;2023-02-01T18:38:30;8.50;99.90
69082;DHT22;56184;51.986;5.760;2023-02-01T18:41:00;8.40;99.90
69082;DHT22;56184;51.986;5.760;2023-02-01T18:43:44;8.40;99.90
69082;DHT22;56184;51.986;5.760;2023-02-01T18:46:25;8.40;99.90
69082;DHT22;56184;51.986;5.760;2023-02-01T18:48:51;8.30;99.90
69082;DHT22;56184;51.986;5.760;2023-02-01T18:51:28;8.30;99.90
69082;DHT22;56184;51.986;5.760;2023-02-01T18:54:00;8.00;99.90
69082;DHT22;56184;51.986;5.760;2023-02-01T18:56:44;7.90;99.90
69082;DHT22;56184;51.986;5.760;2023-02-01T18:59:25;7.70;99.90
69082;DHT22;56184;51.986;5.760;2023-02-01T19:01:50;7.60;99.90
69082;DHT22;56184;51.986;5.760;2023-02-01T19:07:32;7.40;99.90
69082;DHT22;56184;51.986;5.760;2023-02-01T19:10:02;7.30;99.90
69082;DHT22;56184;51.986;5.760;2023-02-01T19:12:36;7.20;99.90
69082;DHT22;56184;51.986;5.760;2023-02-01T19:15:21;7.30;99.90
69082;DHT22;56184;51.986;5.760;2023-02-01T19:18:01;7.30;99.90
69082;DHT22;56184;51.986;5.760;2023-02-01T19:20:46;7.30;99.90
69082;DHT22;56184;51.986;5.760;2023-02-01T19:23:18;7.20;99.90
69082;DHT22;56184;51.986;5.760;2023-02-01T19:25:45;7.10;99.90
69082;DHT22;56184;51.986;5.760;2023-02-01T19:28:11;7.10;99.90
69082;DHT22;56184;51.986;5.760;2023-02-01T19:31:21;7.10;99.90
69082;DHT22;56184;51.986;5.760;2023-02-01T19:33:49;7.20;99.90
69082;DHT22;56184;51.986;5.760;2023-02-01T19:36:21;7.10;99.90
69082;DHT22;56184;51.986;5.760;2023-02-01T19:38:46;7.10;99.90
69082;DHT22;56184;51.986;5.760;2023-02-01T19:41:23;7.00;99.90
69082;DHT22;56184;51.986;5.760;2023-02-01T19:43:53;7.00;99.90
69082;DHT22;56184;51.986;5.760;2023-02-01T19:48:45;6.90;99.90
69082;DHT22;56184;51.986;5.760;2023-02-01T19:51:19;6.90;99.90
69082;DHT22;56184;51.986;5.760;2023-02-01T19:53:57;6.80;99.90
69082;DHT22;56184;51.986;5.760;2023-02-01T19:58:57;6.80;99.90
69082;DHT22;56184;51.986;5.760;2023-02-01T20:02:04;6.90;99.90
69082;DHT22;56184;51.986;5.760;2023-02-01T20:04:44;7.00;99.90
69082;DHT22;56184;51.986;5.760;2023-02-01T20:07:11;7.10;99.90
69082;DHT22;56184;51.986;5.760;2023-02-01T20:09:49;7.20;99.90
69082;DHT22;56184;51.986;5.760;2023-02-01T20:12:33;7.40;99.90
69082;DHT22;56184;51.986;5.760;2023-02-01T20:15:11;7.40;99.90
69082;DHT22;56184;51.986;5.760;2023-02-01T20:17:37;7.50;99.90
69082;DHT22;56184;51.986;5.760;2023-02-01T20:20:06;7.80;99.90
69082;DHT22;56184;51.986;5.760;2023-02-01T20:22:32;7.90;99.90
69082;DHT22;56184;51.986;5.760;2023-02-01T20:24:58;7.80;99.90
69082;DHT22;56184;51.986;5.760;2023-02-01T20:27:24;7.80;99.90
69082;DHT22;56184;51.986;5.760;2023-02-01T20:29:50;7.80;99.90
69082;DHT22;56184;51.986;5.760;2023-02-01T20:32:16;7.90;99.90
69082;DHT22;56184;51.986;5.760;2023-02-01T20:34:42;8.00;99.90
69082;DHT22;56184;51.986;5.760;2023-02-01T20:37:20;8.00;99.90